Terminal Aerodrome Forecast
Issued by NWS Greer, SC

Home | Current Version | Previous Version | Text Only | Print | Product List | Glossary On
Versions: 1 2 3 4 5 6 7 8 9 10 11 12 13
000
FTUS42 KGSP 032327
TAFGSP
TAF
KGSP 032327Z 0400/0424 15003KT P6SM VCSH SCT060 OVC120
     FM040300 VRB03KT P6SM -RA OVC050 PROB30 0409/0412 5SM -RA BR
      OVC030
     FM041200 06003KT 5SM -RA BR OVC025
     FM041600 07005KT 2SM RA BR OVC008
     FM041900 07006KT 2SM RA BR OVC003=

USA.gov is the U.S. government's official web portal to all federal, state and local government web resources and services.